createdAt,value
2023-04-26T00:01:06.342Z,99713.66
2023-04-26T00:03:33.559Z,99715.72
2023-04-26T00:06:04.048Z,99708.59
2023-04-26T00:08:31.263Z,99709.75
2023-04-26T00:10:58.380Z,99712.81
2023-04-26T00:13:25.544Z,99711.88
2023-04-26T00:15:52.621Z,99709.31
2023-04-26T00:18:20.041Z,99716.44
2023-04-26T00:20:47.240Z,99708.84
2023-04-26T00:23:14.212Z,99719.25
2023-04-26T00:25:41.395Z,99712.09
2023-04-26T00:28:08.448Z,99713.72
2023-04-26T00:30:37.657Z,99712.09
2023-04-26T00:33:05.107Z,99711.06
2023-04-26T00:35:32.126Z,99717.28
2023-04-26T00:37:59.133Z,99719.13
2023-04-26T00:40:26.326Z,99717.53
2023-04-26T00:42:58.426Z,99721.34
2023-04-26T00:45:25.607Z,99722.25
2023-04-26T00:47:53.406Z,99713.84
2023-04-26T00:50:21.070Z,99720.16
2023-04-26T00:52:48.443Z,99712.06
2023-04-26T00:55:16.666Z,99708.84
2023-04-26T00:57:45.953Z,99707.28
2023-04-26T01:00:13.771Z,99707.94
2023-04-26T01:02:41.795Z,99707.88
2023-04-26T01:05:09.546Z,99706.44
2023-04-26T01:07:38.749Z,99710.53
2023-04-26T01:10:06.413Z,99705.28
2023-04-26T01:12:33.656Z,99711.84
2023-04-26T01:15:01.174Z,99702.34
2023-04-26T01:17:28.357Z,99700.94
2023-04-26T01:19:57.352Z,99703.63
2023-04-26T01:22:24.355Z,99706.56
2023-04-26T01:24:52.170Z,99698.50
2023-04-26T01:27:19.272Z,99694.78
2023-04-26T01:29:47.863Z,99702.06
2023-04-26T01:32:14.833Z,99694.75
2023-04-26T01:34:41.799Z,99686.25
2023-04-26T01:37:11.008Z,99685.34
2023-04-26T01:39:38.004Z,99686.94
2023-04-26T01:42:05.375Z,99675.59
2023-04-26T01:44:32.510Z,99681.78
2023-04-26T01:47:01.638Z,99681.69
2023-04-26T01:49:28.650Z,99683.13
2023-04-26T01:51:56.318Z,99687.22
2023-04-26T01:54:24.392Z,99683.28
2023-04-26T01:56:53.254Z,99686.41
2023-04-26T01:59:20.765Z,99685.28
2023-04-26T02:01:47.756Z,99672.84
2023-04-26T02:04:14.724Z,99676.25
2023-04-26T02:06:42.464Z,99674.28
2023-04-26T02:09:09.840Z,99672.31
2023-04-26T02:11:40.445Z,99668.50
2023-04-26T02:14:07.638Z,99675.41
2023-04-26T02:16:34.761Z,99675.00
2023-04-26T02:19:02.715Z,99680.38
2023-04-26T02:21:30.838Z,99678.59
2023-04-26T02:23:58.041Z,99673.88
2023-04-26T02:26:25.031Z,99682.56
2023-04-26T02:28:52.191Z,99686.13
2023-04-26T02:31:21.089Z,99680.94
2023-04-26T02:33:49.345Z,99679.69
2023-04-26T02:36:16.331Z,99682.38
2023-04-26T02:38:43.370Z,99669.88
2023-04-26T02:41:10.451Z,99672.72
2023-04-26T02:43:37.869Z,99668.53
2023-04-26T02:46:07.807Z,99672.44
2023-04-26T02:48:34.855Z,99682.41
2023-04-26T02:51:01.872Z,99678.69
2023-04-26T02:53:29.182Z,99673.31
2023-04-26T02:55:56.141Z,99671.53
2023-04-26T02:58:23.091Z,99674.88
2023-04-26T03:00:50.062Z,99661.16
2023-04-26T03:03:17.395Z,99664.59
2023-04-26T03:05:46.403Z,99670.69
2023-04-26T03:08:13.875Z,99667.81
2023-04-26T03:10:40.946Z,99654.91
2023-04-26T03:13:08.272Z,99660.56
2023-04-26T03:15:35.785Z,99663.25
2023-04-26T03:18:02.841Z,99674.06
2023-04-26T03:20:30.084Z,99673.47
2023-04-26T03:22:57.112Z,99663.31
2023-04-26T03:25:24.018Z,99667.94
2023-04-26T03:27:51.274Z,99665.19
2023-04-26T03:30:18.413Z,99664.56
2023-04-26T03:32:45.857Z,99668.38
2023-04-26T03:35:12.982Z,99674.03
2023-04-26T03:37:40.114Z,99669.97
2023-04-26T03:40:11.473Z,99667.28
2023-04-26T03:42:38.481Z,99668.75
2023-04-26T03:45:06.341Z,99678.41
2023-04-26T03:47:33.469Z,99671.28
2023-04-26T03:50:00.539Z,99676.72
2023-04-26T03:52:27.642Z,99674.97
2023-04-26T03:54:54.864Z,99677.03
2023-04-26T03:57:22.355Z,99670.03
2023-04-26T03:59:50.510Z,99680.88
2023-04-26T04:02:17.831Z,99680.88
2023-04-26T04:04:45.102Z,99674.69
2023-04-26T04:07:12.305Z,99678.22
2023-04-26T04:09:39.497Z,99687.97
2023-04-26T04:12:07.305Z,99696.13
2023-04-26T04:14:34.408Z,99693.00
2023-04-26T04:17:01.513Z,99690.56
2023-04-26T04:19:29.728Z,99693.28
2023-04-26T04:21:56.767Z,99694.88
2023-04-26T04:24:25.853Z,99689.50
2023-04-26T04:26:53.038Z,99690.50
2023-04-26T04:29:20.635Z,99692.84
2023-04-26T04:31:47.613Z,99682.00
2023-04-26T04:34:16.582Z,99692.97
2023-04-26T04:36:44.601Z,99691.91
2023-04-26T04:39:16.230Z,99687.25
2023-04-26T04:41:51.503Z,99693.75
2023-04-26T04:44:19.556Z,99689.41
2023-04-26T04:46:47.550Z,99693.13
2023-04-26T04:49:15.096Z,99695.78
2023-04-26T04:51:42.699Z,99690.97
2023-04-26T04:54:15.318Z,99695.66
2023-04-26T04:56:42.778Z,99691.34
2023-04-26T04:59:12.650Z,99691.63
2023-04-26T05:01:39.805Z,99689.50
2023-04-26T05:04:14.094Z,99700.69
2023-04-26T05:06:41.481Z,99702.06
2023-04-26T05:09:09.447Z,99702.41
2023-04-26T05:11:37.360Z,99696.28
2023-04-26T05:14:05.676Z,99703.59
2023-04-26T05:16:32.797Z,99707.44
2023-04-26T05:19:01.695Z,99705.50
2023-04-26T05:21:29.064Z,99705.63
2023-04-26T05:23:56.060Z,99707.53
2023-04-26T05:26:23.503Z,99695.75
2023-04-26T05:28:50.456Z,99703.72
2023-04-26T05:31:46.709Z,99702.84
2023-04-26T05:34:24.057Z,99708.72
2023-04-26T05:36:55.740Z,99709.50
2023-04-26T05:39:22.870Z,99708.72
2023-04-26T05:41:50.093Z,99717.03
2023-04-26T05:44:17.309Z,99716.88
2023-04-26T05:46:46.968Z,99718.97
2023-04-26T05:49:14.049Z,99722.94
2023-04-26T05:51:41.252Z,99723.97
2023-04-26T05:54:08.290Z,99723.19
2023-04-26T05:56:35.327Z,99731.94
2023-04-26T05:59:02.470Z,99733.00
2023-04-26T06:01:31.126Z,99733.66
2023-04-26T06:04:00.852Z,99731.09
2023-04-26T06:06:34.137Z,99728.56
2023-04-26T06:09:01.615Z,99731.66
2023-04-26T06:11:29.408Z,99736.47
2023-04-26T06:13:56.400Z,99739.13
2023-04-26T06:16:25.100Z,99740.25
2023-04-26T06:18:52.385Z,99745.13
2023-04-26T06:21:19.419Z,99746.47
2023-04-26T06:23:46.925Z,99751.41
2023-04-26T06:26:13.866Z,99737.75
2023-04-26T06:28:42.294Z,99744.19
2023-04-26T06:31:09.857Z,99744.50
2023-04-26T06:33:37.125Z,99749.44
2023-04-26T06:36:04.479Z,99746.66
2023-04-26T06:38:31.466Z,99747.88
2023-04-26T06:40:59.354Z,99741.66
2023-04-26T06:43:26.569Z,99745.59
2023-04-26T06:46:00.957Z,99752.09
2023-04-26T06:48:28.101Z,99753.19
2023-04-26T06:50:55.153Z,99750.97
2023-04-26T06:53:23.135Z,99749.03
2023-04-26T06:55:50.499Z,99743.22
2023-04-26T06:58:17.476Z,99753.94
2023-04-26T07:00:44.670Z,99750.06
2023-04-26T07:03:11.881Z,99751.78
2023-04-26T07:05:40.094Z,99759.03
2023-04-26T07:08:07.294Z,99754.94
2023-04-26T07:10:34.429Z,99758.56
2023-04-26T07:13:01.654Z,99757.28
2023-04-26T07:15:28.636Z,99759.59
2023-04-26T07:17:55.709Z,99755.22
2023-04-26T07:20:24.301Z,99762.75
2023-04-26T07:22:51.721Z,99757.19
2023-04-26T07:25:18.878Z,99773.19
2023-04-26T07:27:46.131Z,99760.59
2023-04-26T07:30:13.506Z,99759.13
2023-04-26T07:32:40.655Z,99757.63
2023-04-26T07:35:08.786Z,99756.91
2023-04-26T07:37:35.851Z,99755.88
2023-04-26T07:40:02.945Z,99757.91
2023-04-26T07:42:29.890Z,99759.31
2023-04-26T07:44:56.876Z,99755.94
2023-04-26T07:47:24.444Z,99752.75
2023-04-26T07:49:54.852Z,99753.41
2023-04-26T07:52:21.881Z,99755.66
2023-04-26T07:54:48.903Z,99753.28
2023-04-26T07:57:16.582Z,99758.97
2023-04-26T07:59:43.549Z,99760.47
2023-04-26T08:02:10.917Z,99761.91
2023-04-26T08:04:38.160Z,99768.25
2023-04-26T08:07:05.413Z,99762.44
2023-04-26T08:09:32.479Z,99761.34
2023-04-26T08:11:59.502Z,99759.56
2023-04-26T08:14:26.730Z,99763.09
2023-04-26T08:16:53.893Z,99760.28
2023-04-26T08:19:21.559Z,99750.31
2023-04-26T08:21:48.628Z,99757.47
2023-04-26T08:24:15.620Z,99762.94
2023-04-26T08:26:42.610Z,99756.56
2023-04-26T08:29:09.658Z,99756.72
2023-04-26T08:31:36.669Z,99745.00
2023-04-26T08:34:03.822Z,99751.31
2023-04-26T08:36:32.599Z,99747.25
2023-04-26T08:38:59.962Z,99746.19
2023-04-26T08:41:27.825Z,99755.69
2023-04-26T08:43:58.354Z,99745.69
2023-04-26T08:46:27.935Z,99753.22
2023-04-26T08:49:22.949Z,99749.63
2023-04-26T08:51:51.626Z,99743.88
2023-04-26T08:54:20.273Z,99750.88
2023-04-26T08:56:47.343Z,99745.09
2023-04-26T08:59:15.226Z,99745.19
2023-04-26T09:01:44.657Z,99748.31
2023-04-26T09:04:12.609Z,99739.16
2023-04-26T09:06:39.832Z,99738.81
2023-04-26T09:09:09.400Z,99745.69
2023-04-26T09:12:11.825Z,99742.09
2023-04-26T09:14:39.264Z,99744.16
2023-04-26T09:17:06.407Z,99749.41
2023-04-26T09:19:42.815Z,99747.34
2023-04-26T09:22:10.009Z,99755.88
2023-04-26T09:24:48.388Z,99746.53
2023-04-26T09:27:16.615Z,99748.88
2023-04-26T09:30:00.049Z,99753.94
2023-04-26T09:32:27.681Z,99759.56
2023-04-26T09:34:54.651Z,99759.91
2023-04-26T09:37:21.631Z,99748.56
2023-04-26T09:39:48.655Z,99749.94
2023-04-26T09:42:19.085Z,99756.38
2023-04-26T09:44:46.342Z,99754.41
2023-04-26T09:47:13.561Z,99756.09
2023-04-26T09:49:52.058Z,99751.28
2023-04-26T09:52:20.633Z,99751.84
2023-04-26T09:54:48.839Z,99747.00
2023-04-26T09:57:17.467Z,99755.66
2023-04-26T09:59:49.171Z,99750.91
2023-04-26T10:02:25.022Z,99753.69
2023-04-26T10:04:54.423Z,99740.03
2023-04-26T10:07:26.340Z,99742.81
2023-04-26T10:09:53.937Z,99741.84
2023-04-26T10:12:21.321Z,99748.25
2023-04-26T10:14:49.045Z,99744.28
2023-04-26T10:17:16.555Z,99739.03
2023-04-26T10:19:44.694Z,99735.09
2023-04-26T10:22:22.393Z,99726.97
2023-04-26T10:24:50.811Z,99732.16
2023-04-26T10:27:37.723Z,99725.94
2023-04-26T10:30:10.337Z,99724.69
2023-04-26T10:32:57.770Z,99731.38
2023-04-26T10:35:30.994Z,99732.03
2023-04-26T10:38:00.957Z,99731.94
2023-04-26T10:40:31.091Z,99738.75
2023-04-26T10:43:15.920Z,99736.06
2023-04-26T10:45:44.929Z,99739.81
2023-04-26T10:48:27.510Z,99737.84
2023-04-26T10:51:08.424Z,99735.94
2023-04-26T10:53:47.699Z,99734.94
2023-04-26T10:56:24.049Z,99735.88
2023-04-26T11:01:42.758Z,99725.19
2023-04-26T11:04:11.895Z,99719.06
2023-04-26T11:06:55.779Z,99728.19
2023-04-26T11:09:36.361Z,99726.06
2023-04-26T11:12:14.474Z,99738.41
2023-04-26T11:14:42.520Z,99729.88
2023-04-26T11:17:10.640Z,99727.84
2023-04-26T11:19:37.694Z,99730.44
2023-04-26T11:22:08.573Z,99728.44
2023-04-26T11:24:39.404Z,99728.59
2023-04-26T11:27:12.073Z,99738.72
2023-04-26T11:29:39.559Z,99735.38
2023-04-26T11:32:07.211Z,99734.56
2023-04-26T11:34:35.389Z,99731.91
2023-04-26T11:37:05.059Z,99717.69
2023-04-26T11:39:33.530Z,99725.13
2023-04-26T11:42:13.121Z,99725.88
2023-04-26T11:44:41.273Z,99723.88
2023-04-26T11:47:10.200Z,99726.31
2023-04-26T11:49:38.881Z,99724.13
2023-04-26T11:52:06.773Z,99723.00
2023-04-26T11:54:38.137Z,99720.59
2023-04-26T11:57:17.346Z,99711.53
2023-04-26T11:59:46.127Z,99715.66
2023-04-26T12:02:13.442Z,99713.88
2023-04-26T12:04:41.409Z,99712.13
2023-04-26T12:07:09.819Z,99717.94
2023-04-26T12:09:42.255Z,99715.84
2023-04-26T12:12:09.266Z,99712.94
2023-04-26T12:14:39.674Z,99717.91
2023-04-26T12:17:07.734Z,99721.41
2023-04-26T12:19:36.999Z,99717.97
2023-04-26T12:22:06.011Z,99712.50
2023-04-26T12:24:39.277Z,99719.50
2023-04-26T12:27:08.009Z,99708.28
2023-04-26T12:29:35.814Z,99707.41
2023-04-26T12:32:04.284Z,99719.31
2023-04-26T12:34:31.495Z,99708.03
2023-04-26T12:36:58.600Z,99708.66
2023-04-26T12:39:25.751Z,99705.75
2023-04-26T12:41:52.829Z,99713.81
2023-04-26T12:44:21.866Z,99707.31
2023-04-26T12:46:50.087Z,99710.16
2023-04-26T12:49:17.210Z,99722.81
2023-04-26T12:51:44.215Z,99719.44
2023-04-26T12:54:11.282Z,99716.09
2023-04-26T12:56:43.860Z,99705.31
2023-04-26T12:59:11.196Z,99699.38
2023-04-26T13:01:38.309Z,99689.63
2023-04-26T13:04:06.289Z,99690.09
2023-04-26T13:06:34.132Z,99681.78
2023-04-26T13:09:01.926Z,99688.66
2023-04-26T13:11:31.150Z,99680.53
2023-04-26T13:13:58.473Z,99678.97
2023-04-26T13:16:26.285Z,99692.44
2023-04-26T13:18:53.396Z,99675.31
2023-04-26T13:21:20.308Z,99681.56
2023-04-26T13:23:47.509Z,99683.59
2023-04-26T13:26:15.221Z,99676.66
2023-04-26T13:28:42.287Z,99676.75
2023-04-26T13:31:09.413Z,99673.34
2023-04-26T13:33:36.654Z,99684.69
2023-04-26T13:36:03.766Z,99678.03
2023-04-26T13:38:32.822Z,99681.00
2023-04-26T13:41:00.232Z,99688.19
2023-04-26T13:43:27.274Z,99682.03
2023-04-26T13:45:54.425Z,99680.94
2023-04-26T13:48:21.653Z,99677.13
2023-04-26T13:50:48.644Z,99676.47
2023-04-26T13:53:15.582Z,99684.44
2023-04-26T13:55:42.546Z,99680.66
2023-04-26T13:58:09.501Z,99677.16
2023-04-26T14:00:36.964Z,99672.41
2023-04-26T14:03:04.100Z,99674.97
2023-04-26T14:05:31.340Z,99675.44
2023-04-26T14:07:58.899Z,99677.88
2023-04-26T14:10:26.336Z,99684.22
2023-04-26T14:12:53.737Z,99687.56
2023-04-26T14:15:21.442Z,99684.75
2023-04-26T14:17:48.908Z,99682.72
2023-04-26T14:20:16.141Z,99693.13
2023-04-26T14:22:43.171Z,99694.81
2023-04-26T14:25:10.239Z,99690.47
2023-04-26T14:27:39.608Z,99697.63
2023-04-26T14:30:07.987Z,99702.38
2023-04-26T14:32:35.259Z,99702.69
2023-04-26T14:35:02.307Z,99703.31
2023-04-26T14:37:29.403Z,99698.31
2023-04-26T14:39:56.340Z,99705.41
2023-04-26T14:42:23.355Z,99698.25
2023-04-26T14:44:50.370Z,99702.59
2023-04-26T14:47:17.431Z,99706.88
2023-04-26T14:49:44.447Z,99713.22
2023-04-26T14:52:11.453Z,99709.56
2023-04-26T14:54:39.568Z,99719.63
2023-04-26T14:57:06.705Z,99710.63
2023-04-26T14:59:33.903Z,99712.00
2023-04-26T15:02:01.170Z,99702.59
2023-04-26T15:04:28.945Z,99706.09
2023-04-26T15:06:56.991Z,99709.47
2023-04-26T15:09:24.116Z,99707.47
2023-04-26T15:11:51.053Z,99704.16
2023-04-26T15:14:17.994Z,99712.88
2023-04-26T15:16:45.398Z,99711.06
2023-04-26T15:19:12.421Z,99715.88
2023-04-26T15:21:39.641Z,99716.78
2023-04-26T15:24:07.870Z,99719.03
2023-04-26T15:26:34.871Z,99724.28
2023-04-26T15:29:02.108Z,99722.91
2023-04-26T15:31:29.169Z,99724.63
2023-04-26T15:33:58.844Z,99725.88
2023-04-26T15:36:26.203Z,99728.00
2023-04-26T15:38:53.338Z,99732.53
2023-04-26T15:41:20.473Z,99734.09
2023-04-26T15:43:47.426Z,99739.66
2023-04-26T15:46:15.253Z,99740.03
2023-04-26T15:48:42.419Z,99746.59
2023-04-26T15:51:09.424Z,99744.59
2023-04-26T15:53:39.263Z,99742.22
2023-04-26T15:56:17.235Z,99735.34
2023-04-26T15:58:45.712Z,99732.88
2023-04-26T16:01:13.262Z,99720.97
2023-04-26T16:03:43.369Z,99723.16
2023-04-26T16:06:12.836Z,99724.31
2023-04-26T16:08:40.891Z,99729.38
2023-04-26T16:11:08.094Z,99729.22
2023-04-26T16:13:35.135Z,99735.22
2023-04-26T16:16:02.286Z,99733.09
2023-04-26T16:18:29.388Z,99740.91
2023-04-26T16:21:04.632Z,99752.84
2023-04-26T16:23:31.896Z,99752.84
2023-04-26T16:25:58.982Z,99761.59
2023-04-26T16:28:26.214Z,99761.88
2023-04-26T16:30:53.447Z,99767.47
2023-04-26T16:33:22.882Z,99770.69
2023-04-26T16:35:52.813Z,99769.47
2023-04-26T16:38:20.226Z,99776.53
2023-04-26T16:40:58.141Z,99793.31
2023-04-26T16:43:30.337Z,99791.25
2023-04-26T16:46:08.432Z,99784.69
2023-04-26T16:48:37.650Z,99786.28
2023-04-26T16:51:07.580Z,99789.19
2023-04-26T16:53:36.110Z,99791.06
2023-04-26T16:56:04.231Z,99798.59
2023-04-26T16:58:31.458Z,99809.09
2023-04-26T17:00:58.548Z,99802.22
2023-04-26T17:03:26.092Z,99808.78
2023-04-26T17:05:53.479Z,99812.03
2023-04-26T17:08:20.717Z,99815.78
2023-04-26T17:10:48.485Z,99815.47
2023-04-26T17:13:15.967Z,99819.66
2023-04-26T17:15:43.531Z,99824.41
2023-04-26T17:18:11.099Z,99831.38
2023-04-26T17:20:38.205Z,99825.16
2023-04-26T17:23:05.441Z,99835.13
2023-04-26T17:25:32.741Z,99833.75
2023-04-26T17:27:59.825Z,99832.66
2023-04-26T17:30:26.846Z,99836.78
2023-04-26T17:32:53.968Z,99837.69
2023-04-26T17:35:21.307Z,99835.22
2023-04-26T17:37:50.561Z,99836.72
2023-04-26T17:40:18.665Z,99841.69
2023-04-26T17:42:46.719Z,99848.66
2023-04-26T17:45:14.611Z,99855.44
2023-04-26T17:47:43.116Z,99848.09
2023-04-26T17:50:11.015Z,99848.66
2023-04-26T17:52:38.446Z,99846.16
2023-04-26T17:55:08.321Z,99855.25
2023-04-26T17:57:36.415Z,99857.84
2023-04-26T18:00:04.226Z,99857.53
2023-04-26T18:02:36.394Z,99859.75
2023-04-26T18:05:05.141Z,99858.84
2023-04-26T18:07:32.241Z,99860.25
2023-04-26T18:09:59.229Z,99870.50
2023-04-26T18:12:26.291Z,99869.16
2023-04-26T18:14:53.371Z,99876.72
2023-04-26T18:17:20.499Z,99876.75
2023-04-26T18:19:47.539Z,99872.78
2023-04-26T18:22:14.586Z,99873.56
2023-04-26T18:24:41.623Z,99873.91
2023-04-26T18:27:11.270Z,99877.44
2023-04-26T18:29:38.409Z,99879.22
2023-04-26T18:32:05.622Z,99872.72
2023-04-26T18:34:32.671Z,99878.69
2023-04-26T18:36:59.664Z,99873.88
2023-04-26T18:39:26.620Z,99878.69
2023-04-26T18:41:53.891Z,99872.22
2023-04-26T18:44:20.978Z,99871.31
2023-04-26T18:46:48.189Z,99876.66
2023-04-26T18:49:15.366Z,99882.59
2023-04-26T18:51:42.322Z,99881.22
2023-04-26T18:54:09.304Z,99884.38
2023-04-26T18:56:37.646Z,99883.00
2023-04-26T18:59:04.692Z,99879.53
2023-04-26T19:01:31.832Z,99880.44
2023-04-26T19:03:59.066Z,99883.41
2023-04-26T19:06:26.305Z,99877.69
2023-04-26T19:08:53.310Z,99882.00
2023-04-26T19:11:20.262Z,99886.50
2023-04-26T19:13:47.242Z,99889.66
2023-04-26T19:16:15.356Z,99885.59
2023-04-26T19:18:44.343Z,99884.44
2023-04-26T19:21:11.579Z,99890.53
2023-04-26T19:23:38.612Z,99888.03
2023-04-26T19:26:12.573Z,99885.94
2023-04-26T19:28:40.906Z,99889.13
2023-04-26T19:31:08.132Z,99892.97
2023-04-26T19:33:35.224Z,99889.75
2023-04-26T19:36:02.310Z,99888.63
2023-04-26T19:38:29.430Z,99895.91
2023-04-26T19:40:56.423Z,99892.44
2023-04-26T19:43:23.467Z,99884.47
2023-04-26T19:45:50.470Z,99894.13
2023-04-26T19:48:17.457Z,99896.03
2023-04-26T19:50:46.373Z,99891.97
2023-04-26T19:53:15.444Z,99893.97
2023-04-26T19:55:42.697Z,99895.09
2023-04-26T19:58:12.924Z,99900.41
2023-04-26T20:00:40.655Z,99903.53
2023-04-26T20:03:08.004Z,99902.53
2023-04-26T20:05:35.465Z,99900.56
2023-04-26T20:08:02.758Z,99910.75
2023-04-26T20:10:34.212Z,99915.31
2023-04-26T20:13:01.642Z,99912.00
2023-04-26T20:15:30.470Z,99919.91
2023-04-26T20:17:58.838Z,99938.75
2023-04-26T20:20:25.908Z,99943.47
2023-04-26T20:22:52.881Z,99941.75
2023-04-26T20:25:20.177Z,99935.88
2023-04-26T20:27:47.873Z,99931.34
2023-04-26T20:30:15.852Z,99934.94
2023-04-26T20:32:43.545Z,99940.94
2023-04-26T20:35:12.880Z,99947.53
2023-04-26T20:37:40.093Z,99953.22
2023-04-26T20:40:08.076Z,99947.09
2023-04-26T20:42:35.472Z,99948.09
2023-04-26T20:45:03.935Z,99948.91
2023-04-26T20:47:31.563Z,99953.09
2023-04-26T20:49:58.709Z,99948.00
2023-04-26T20:52:25.740Z,99952.47
2023-04-26T20:54:52.731Z,99953.88
2023-04-26T20:57:19.685Z,99953.91
2023-04-26T20:59:46.658Z,99962.06
2023-04-26T21:02:13.866Z,99958.13
2023-04-26T21:04:42.787Z,99969.00
2023-04-26T21:07:10.671Z,99969.28
2023-04-26T21:09:38.380Z,99978.41
2023-04-26T21:12:05.756Z,99971.03
2023-04-26T21:14:32.812Z,99984.69
2023-04-26T21:17:01.531Z,99987.69
2023-04-26T21:19:28.730Z,99999.16
2023-04-26T21:21:55.818Z,99999.13
2023-04-26T21:24:22.909Z,99998.16
2023-04-26T21:26:49.968Z,100005.03
2023-04-26T21:29:17.222Z,100006.53
2023-04-26T21:31:44.366Z,100005.16
2023-04-26T21:34:11.446Z,100015.81
2023-04-26T21:36:38.424Z,100015.16
2023-04-26T21:39:05.489Z,100011.94
2023-04-26T21:41:32.514Z,100019.09
2023-04-26T21:43:59.460Z,100033.31
2023-04-26T21:46:26.998Z,100038.09
2023-04-26T21:48:54.084Z,100044.69
2023-04-26T21:51:21.135Z,100049.28
2023-04-26T21:53:48.105Z,100056.34
2023-04-26T21:56:15.308Z,100055.78
2023-04-26T21:58:42.682Z,100063.88
2023-04-26T22:01:11.480Z,100046.88
2023-04-26T22:03:39.173Z,100059.50
2023-04-26T22:06:07.366Z,100044.78
2023-04-26T22:08:34.990Z,100056.44
2023-04-26T22:11:02.798Z,100053.22
2023-04-26T22:13:30.895Z,100055.06
2023-04-26T22:15:57.950Z,100050.94
2023-04-26T22:18:26.060Z,100051.38
2023-04-26T22:20:53.704Z,100049.94
2023-04-26T22:23:21.103Z,100042.41
2023-04-26T22:25:48.107Z,100043.44
2023-04-26T22:28:15.758Z,100054.91
2023-04-26T22:30:42.713Z,100042.78
2023-04-26T22:33:11.255Z,100045.72
2023-04-26T22:35:38.440Z,100061.59
2023-04-26T22:38:05.633Z,100049.34
2023-04-26T22:40:32.785Z,100062.16
2023-04-26T22:42:59.747Z,100062.91
2023-04-26T22:45:27.110Z,100068.88
2023-04-26T22:47:54.322Z,100059.88
2023-04-26T22:50:21.674Z,100067.16
2023-04-26T22:52:49.903Z,100058.38
2023-04-26T22:55:17.604Z,100067.38
2023-04-26T22:57:44.917Z,100072.66
2023-04-26T23:00:12.821Z,100066.66
2023-04-26T23:02:40.032Z,100058.09
2023-04-26T23:05:10.121Z,100059.47
2023-04-26T23:07:38.410Z,100064.44
2023-04-26T23:10:06.811Z,100067.81
2023-04-26T23:12:33.810Z,100069.72
2023-04-26T23:15:00.864Z,100068.91
2023-04-26T23:17:28.126Z,100070.59
2023-04-26T23:19:55.176Z,100070.44
2023-04-26T23:22:22.186Z,100072.13
2023-04-26T23:24:49.210Z,100064.22
2023-04-26T23:27:16.152Z,100069.25
2023-04-26T23:29:43.159Z,100080.06
2023-04-26T23:32:10.183Z,100068.94
2023-04-26T23:34:37.167Z,100068.16
2023-04-26T23:37:07.040Z,100064.88
2023-04-26T23:39:35.741Z,100069.97
2023-04-26T23:42:02.824Z,100071.38
2023-04-26T23:44:29.850Z,100076.78
2023-04-26T23:46:56.913Z,100069.78
2023-04-26T23:49:24.581Z,100075.97
2023-04-26T23:51:51.674Z,100088.28
2023-04-26T23:54:18.736Z,100088.38
2023-04-26T23:56:45.777Z,100082.25
2023-04-26T23:59:13.247Z,100094.94
